header
chart

Reported and forecast weather at local airports

Important: not to be used for flight planning purposes.


EGBB METAR fetched   Tuesday 28th Mar @ 01:25:11
EGBB 280020Z 10006KT 0450 R15/P1500 FG OVC001 06/06 Q1020

EGCC METAR fetched   Tuesday 28th Mar @ 01:25:09
EGCC 272350Z AUTO 10002KT 6000 NCD 04/03 Q1020 NOSIG

EGGP METAR fetched   Tuesday 28th Mar @ 01:25:10
EGGP 280020Z 13006KT CAVOK 07/05 Q1019

EGNH METAR fetched   Tuesday 28th Mar @ 01:25:10
EGNH 271950Z 09009KT 9000 NSC 08/05 Q1020

EGNM METAR fetched   Tuesday 28th Mar @ 01:25:11
EGNM 280020Z 09005KT 1500 BR BKN006 05/05 Q1020

EGOV METAR fetched   Tuesday 28th Mar @ 01:25:12
EGOV 272350Z AUTO 05004KT 5000 HZ NCD 06/05 Q1017


EGBB TAF fetched   Tuesday 28th Mar @ 01:25:12
TAF AMD TAF AMD EGBB 272303Z 2723/2818 10004KT 0300 FG BKN001 TEMPO 2723/2807 1500 BR BKN002 BECMG 2807/2809 4000 BR FEW015 BECMG 2809/2812 20010KT 9999 NSW SCT030 PROB30 TEMPO 2812/2818 7000 SHRA

EGCC TAF fetched   Tuesday 28th Mar @ 01:25:09
TAF EGCC 271659Z 2718/2824 14008KT 9999 FEW045 TEMPO 2721/2809 8000 PROB30 TEMPO 2803/2809 4000 BR BKN008 BECMG 2809/2812 20010KT PROB30 TEMPO 2811/2821 7000 SHRA BECMG 2821/2824 7000 RADZ BKN012

EGGP TAF fetched   Tuesday 28th Mar @ 01:25:10
TAF EGGP 271659Z 2718/2818 15010KT 9999 FEW045 PROB30 TEMPO 2803/2806 8000 BKN008 BECMG 2809/2812 21010KT PROB30 TEMPO 2811/2818 7000 SHRA

EGNM TAF fetched   Tuesday 28th Mar @ 01:25:11
TAF AMD TAF AMD EGNM 272236Z 2722/2818 12005KT 4000 BR BKN006 TEMPO 2722/2724 1200 BKN004 TEMPO 2800/2810 0300 FG OVC001 PROB40 TEMPO 2810/2812 6000 NSW SCT005 BECMG 2812/2815 23010KT 9999 NSW SCT012 PROB30 TEMPO 2815/2818 4000 +SHRA

EGOV TAF fetched   Tuesday 28th Mar @ 01:25:12
TAF TAF EGOV 010100Z 3021/0102 CNL

Every effort is made to ensure that this information is free from errors but as it is provided by a third party the accuracy of the reports cannot be guaranteed.